Time;durP1;ratioP1;P1;durP2;ratioP2;P2;SDS_P1;SDS_P2;PMS_P1;PMS_P2;Temp;Humidity;BMP_temperature;BMP_pressure;BME280_temperature;BME280_humidity;BME280_pressure;Samples;Min_cycle;Max_cycle;Signal;HPM_P1;HPM_P2
2022/12/02 00:00:47;;;;;;;12.57;10.60;;;;;;;4.28;100.00;102259.81;2072791;28;20578;-64
2022/12/02 00:01:49;;;;;;;12.05;10.45;;;;;;;4.98;100.00;102358.63;2072462;28;20177;-65
2022/12/02 00:02:50;;;;;;;13.05;11.65;;;;;;;5.02;100.00;102381.50;2073633;28;20737;-65
2022/12/02 00:03:50;;;;;;;13.05;11.48;;;;;;;4.99;100.00;102378.66;2073519;28;20191;-64
2022/12/02 00:04:56;;;;;;;12.83;11.20;;;;;;;4.94;100.00;102371.47;2073214;28;20247;-65
2022/12/02 00:05:56;;;;;;;13.38;11.95;;;;;;;4.90;100.00;102373.34;2073549;28;20181;-65
2022/12/02 00:06:58;;;;;;;12.43;11.13;;;;;;;4.91;100.00;102380.41;2073684;28;20208;-65
2022/12/02 00:08:15;;;;;;;13.70;11.63;;;;;;;4.94;100.00;102378.91;2073680;28;20186;-65
2022/12/02 00:09:30;;;;;;;14.02;11.85;;;;;;;4.12;100.00;102248.81;2073288;28;20279;-65
2022/12/02 00:10:33;;;;;;;12.88;11.25;;;;;;;4.99;100.00;102384.97;2073675;28;20616;-65
2022/12/02 00:11:33;;;;;;;14.55;11.57;;;;;;;5.02;100.00;102386.22;2073512;28;20200;-65
2022/12/02 00:12:34;;;;;;;13.37;11.77;;;;;;;4.92;100.00;102378.47;2073354;28;20631;-65
2022/12/02 00:13:43;;;;;;;14.18;12.52;;;;;;;4.88;100.00;102375.63;2072251;28;20737;-65
2022/12/02 00:14:43;;;;;;;14.00;11.90;;;;;;;4.80;100.00;102375.78;2072560;28;20331;-65
2022/12/02 00:15:46;;;;;;;12.97;10.97;;;;;;;4.62;100.00;102386.28;2073245;28;20210;-65
2022/12/02 00:16:47;;;;;;;13.70;11.38;;;;;;;4.71;100.00;102377.88;2073224;28;20196;-65
2022/12/02 00:17:48;;;;;;;12.90;11.38;;;;;;;4.76;100.00;102375.69;2073504;28;20232;-65
2022/12/02 00:18:52;;;;;;;11.97;10.73;;;;;;;4.87;100.00;102376.75;2072767;28;20190;-65
2022/12/02 00:19:52;;;;;;;12.10;10.80;;;;;;;4.93;100.00;102377.31;2071961;28;20292;-65
2022/12/02 00:20:53;;;;;;;13.77;11.70;;;;;;;4.01;100.00;102244.94;2073117;28;20185;-65
2022/12/02 00:21:54;;;;;;;12.38;11.07;;;;;;;4.83;100.00;102378.63;2073257;28;20630;-65
2022/12/02 00:22:54;;;;;;;12.30;11.10;;;;;;;4.77;100.00;102382.00;2073203;28;20185;-65
2022/12/02 00:23:55;;;;;;;12.63;11.33;;;;;;;4.77;100.00;102377.28;2073578;28;20269;-64
2022/12/02 00:24:55;;;;;;;13.83;11.20;;;;;;;4.80;100.00;102378.53;2073191;28;20213;-65
2022/12/02 00:25:55;;;;;;;12.70;11.40;;;;;;;4.35;100.00;102312.13;2073064;28;20197;-64
2022/12/02 00:26:56;;;;;;;13.03;11.27;;;;;;;4.83;100.00;102381.38;2073487;28;20276;-64
2022/12/02 00:27:57;;;;;;;12.63;10.90;;;;;;;4.86;100.00;102380.66;2073399;28;20193;-64
2022/12/02 00:28:57;;;;;;;12.77;11.30;;;;;;;4.69;100.00;102375.50;2073649;28;20283;-64
2022/12/02 00:29:58;;;;;;;14.60;11.63;;;;;;;4.55;100.00;102377.84;2072840;28;20188;-64
2022/12/02 00:30:58;;;;;;;13.13;11.73;;;;;;;4.66;100.00;102375.41;2073383;28;20740;-65
2022/12/02 00:31:59;;;;;;;13.83;12.37;;;;;;;4.72;100.00;102374.78;2073487;28;20252;-64
2022/12/02 00:32:59;;;;;;;13.90;11.80;;;;;;;4.76;100.00;102372.94;2073331;28;20660;-64
2022/12/02 00:34:00;;;;;;;13.93;11.97;;;;;;;4.74;100.00;102380.75;2072618;28;20221;-64
2022/12/02 00:35:01;;;;;;;13.32;11.60;;;;;;;4.77;100.00;102371.78;2073182;28;20194;-64
2022/12/02 00:36:01;;;;;;;13.23;11.83;;;;;;;4.24;100.00;102289.91;2073315;28;20231;-64
2022/12/02 00:37:02;;;;;;;13.40;11.37;;;;;;;4.78;100.00;102378.09;2073127;28;20181;-64
2022/12/02 00:38:03;;;;;;;13.03;11.63;;;;;;;3.42;100.00;102186.44;2073559;28;20316;-64
2022/12/02 00:39:03;;;;;;;13.95;12.25;;;;;;;4.67;100.00;102377.78;2073365;28;20655;-65
2022/12/02 00:40:04;;;;;;;14.77;12.63;;;;;;;4.72;100.00;102377.53;2070179;28;20545;-65
2022/12/02 00:41:04;;;;;;;13.45;12.05;;;;;;;4.72;100.00;102379.50;2073097;28;20721;-64
2022/12/02 00:42:05;;;;;;;12.80;11.50;;;;;;;4.67;100.00;102369.53;2073426;28;20636;-64
2022/12/02 00:47:02;;;;;;;13.82;11.50;;;;;;;4.35;100.00;102336.84;2071944;28;20594;-64
2022/12/02 00:48:03;;;;;;;12.47;11.17;;;;;;;4.51;100.00;102349.47;2072965;28;20190;-65
2022/12/02 00:49:05;;;;;;;13.73;11.80;;;;;;;4.60;100.00;102365.78;2072569;28;20650;-64
2022/12/02 00:50:06;;;;;;;12.95;11.20;;;;;;;4.63;100.00;102370.59;2072691;28;20594;-64
2022/12/02 00:51:07;;;;;;;13.77;12.17;;;;;;;4.64;100.00;102370.25;2073124;28;20212;-65
2022/12/02 00:52:07;;;;;;;14.70;11.97;;;;;;;4.47;100.00;102342.31;2073507;28;20208;-65
2022/12/02 00:53:07;;;;;;;12.87;11.33;;;;;;;4.43;100.00;102336.72;2073221;28;20185;-65
2022/12/02 00:54:09;;;;;;;13.40;12.00;;;;;;;4.58;100.00;102363.44;2072695;28;20190;-64
2022/12/02 00:55:09;;;;;;;14.07;11.75;;;;;;;4.60;100.00;102358.38;2068195;28;20241;-64
2022/12/02 00:56:10;;;;;;;12.60;11.30;;;;;;;4.67;100.00;102363.28;2073253;28;20193;-65
2022/12/02 00:57:10;;;;;;;12.07;10.77;;;;;;;4.73;100.00;102367.34;2073321;28;20659;-65
2022/12/02 00:58:10;;;;;;;12.93;11.53;;;;;;;4.72;100.00;102368.50;2073008;28;20189;-64
2022/12/02 00:59:11;;;;;;;12.80;11.50;;;;;;;4.72;100.00;102366.53;2073199;28;20216;-64
2022/12/02 01:00:12;;;;;;;13.00;11.30;;;;;;;4.72;100.00;102376.75;2073395;28;20199;-64
2022/12/02 01:01:12;;;;;;;13.90;12.40;;;;;;;4.71;100.00;102367.69;2072764;28;20578;-65
2022/12/02 01:02:13;;;;;;;12.50;11.20;;;;;;;4.84;100.00;102369.25;2073007;28;20433;-64
2022/12/02 01:03:13;;;;;;;14.00;11.57;;;;;;;4.87;100.00;102371.28;2073065;28;20186;-64
2022/12/02 01:04:14;;;;;;;12.50;10.27;;;;;;;4.80;100.00;102384.00;2073041;28;20593;-64
2022/12/02 01:05:14;;;;;;;11.00;9.83;;;;;;;4.80;100.00;102362.03;2072080;28;20198;-65
2022/12/02 01:06:15;;;;;;;12.93;10.70;;;;;;;3.93;100.00;102223.16;2073155;28;20196;-65
2022/12/02 01:07:16;;;;;;;11.90;10.70;;;;;;;4.06;100.00;102274.88;2073341;28;20224;-65
2022/12/02 01:08:16;;;;;;;12.77;11.10;;;;;;;4.57;100.00;102325.34;2073571;28;20196;-64
2022/12/02 01:09:17;;;;;;;11.87;10.67;;;;;;;4.71;100.00;102362.22;2072873;28;20280;-64
2022/12/02 01:10:17;;;;;;;12.13;10.83;;;;;;;4.81;100.00;102356.19;2073105;28;20196;-65
2022/12/02 01:11:18;;;;;;;11.40;10.07;;;;;;;4.78;100.00;102351.41;2073418;28;20204;-64
2022/12/02 01:12:19;;;;;;;11.77;10.55;;;;;;;4.98;100.00;102358.63;2073392;28;20197;-64
2022/12/02 01:13:19;;;;;;;12.57;10.17;;;;;;;5.05;100.00;102363.50;2073106;28;20240;-64
2022/12/02 01:14:20;;;;;;;11.73;10.53;;;;;;;4.50;100.00;102265.53;2072670;28;20193;-64
2022/12/02 01:15:20;;;;;;;11.27;10.10;;;;;;;5.14;100.00;102361.38;2073211;28;20625;-65
2022/12/02 01:16:21;;;;;;;10.83;9.57;;;;;;;5.19;100.00;102361.13;2073213;28;20194;-64
2022/12/02 01:17:21;;;;;;;10.77;9.03;;;;;;;5.23;100.00;102359.28;2073153;28;20193;-64
2022/12/02 01:18:22;;;;;;;9.40;8.40;;;;;;;5.32;100.00;102359.88;2073304;28;20840;-64
2022/12/02 01:19:22;;;;;;;10.07;8.97;;;;;;;5.35;100.00;102362.75;2072857;28;20287;-64
2022/12/02 01:20:22;;;;;;;10.67;9.57;;;;;;;5.39;100.00;102358.09;2070856;28;20186;-64
2022/12/02 01:21:23;;;;;;;10.90;9.20;;;;;;;5.42;100.00;102357.41;2069056;28;20186;-65
2022/12/02 01:22:23;;;;;;;10.30;9.10;;;;;;;5.43;100.00;102359.00;2072171;28;20178;-64
2022/12/02 01:23:24;;;;;;;10.67;9.57;;;;;;;5.50;100.00;102366.63;2072739;28;20236;-65
2022/12/02 01:24:24;;;;;;;10.80;9.67;;;;;;;5.52;100.00;102361.56;2072894;28;20221;-65
2022/12/02 01:25:25;;;;;;;11.17;9.97;;;;;;;5.55;100.00;102361.63;2072981;28;20219;-65
2022/12/02 01:26:25;;;;;;;10.10;8.80;;;;;;;5.60;100.00;102357.84;2072692;28;20651;-64
2022/12/02 01:27:26;;;;;;;10.53;9.53;;;;;;;5.63;100.00;102363.41;2073140;28;20196;-65
2022/12/02 01:28:26;;;;;;;11.50;9.83;;;;;;;5.65;100.00;102368.56;2073285;28;20186;-65
2022/12/02 01:29:26;;;;;;;10.07;9.07;;;;;;;5.62;100.00;102367.31;2072714;28;20251;-64
2022/12/02 01:30:27;;;;;;;11.47;9.23;;;;;;;5.62;100.00;102363.75;2073310;28;20232;-65
2022/12/02 01:31:27;;;;;;;11.33;10.17;;;;;;;5.60;100.00;102361.34;2072670;28;20220;-64
2022/12/02 01:32:28;;;;;;;11.40;9.67;;;;;;;5.58;100.00;102368.38;2073056;28;20716;-64
2022/12/02 01:33:28;;;;;;;10.40;9.33;;;;;;;5.61;100.00;102393.22;2072732;28;20248;-65
2022/12/02 01:34:28;;;;;;;10.97;9.60;;;;;;;5.64;100.00;102366.97;2072430;28;20226;-65
2022/12/02 01:35:29;;;;;;;10.50;9.43;;;;;;;5.67;100.00;102364.28;2071701;28;20193;-64
2022/12/02 01:36:30;;;;;;;11.70;10.20;;;;;;;5.64;100.00;102364.22;2073039;28;20189;-65
2022/12/02 01:37:30;;;;;;;10.90;9.80;;;;;;;5.60;100.00;102363.34;2073379;28;20667;-65
2022/12/02 01:38:30;;;;;;;10.17;9.17;;;;;;;5.64;100.00;102370.50;2073374;28;20244;-65
2022/12/02 01:39:31;;;;;;;10.67;9.20;;;;;;;5.66;100.00;102379.22;2066248;28;20248;-65
2022/12/02 01:40:32;;;;;;;10.33;9.23;;;;;;;5.62;100.00;102359.06;2070530;28;20213;-64
2022/12/02 01:41:32;;;;;;;12.00;10.70;;;;;;;5.66;100.00;102362.72;2073190;28;20272;-64
2022/12/02 01:42:33;;;;;;;10.80;9.70;;;;;;;5.70;100.00;102363.56;2072755;28;20717;-65
2022/12/02 01:43:34;;;;;;;10.77;9.67;;;;;;;5.66;100.00;102356.41;2073030;28;20193;-64
2022/12/02 01:44:35;;;;;;;10.83;9.67;;;;;;;5.46;100.00;102332.72;2072950;28;20193;-65
2022/12/02 01:45:36;;;;;;;10.63;9.55;;;;;;;5.28;100.00;102326.03;2068374;28;20244;-64
2022/12/02 01:46:37;;;;;;;11.20;9.30;;;;;;;5.60;100.00;102363.34;2072777;28;20306;-64
2022/12/02 01:47:39;;;;;;;11.20;10.00;;;;;;;5.62;100.00;102361.81;2072730;28;20197;-64
2022/12/02 01:48:39;;;;;;;11.85;9.90;;;;;;;5.64;100.00;102359.50;2072805;28;20182;-64
2022/12/02 01:49:40;;;;;;;11.17;9.83;;;;;;;5.60;100.00;102366.88;2072649;28;20193;-65
2022/12/02 01:50:41;;;;;;;11.77;10.10;;;;;;;5.56;100.00;102378.94;2072870;28;20193;-64
2022/12/02 01:51:41;;;;;;;11.00;9.80;;;;;;;5.55;100.00;102358.09;2072114;28;20550;-64
2022/12/02 01:52:42;;;;;;;11.00;9.90;;;;;;;5.37;100.00;102321.94;2070729;28;20227;-65
2022/12/02 01:53:43;;;;;;;10.98;9.88;;;;;;;5.49;100.00;102334.78;2073029;28;20235;-65
2022/12/02 01:54:43;;;;;;;10.93;9.83;;;;;;;4.97;100.00;102252.63;2073030;28;20223;-65
2022/12/02 01:55:44;;;;;;;11.73;10.40;;;;;;;5.63;100.00;102357.09;2072829;28;20208;-64
2022/12/02 01:56:44;;;;;;;11.77;10.47;;;;;;;5.56;100.00;102352.25;2073041;28;20193;-64
2022/12/02 01:57:45;;;;;;;10.43;9.10;;;;;;;5.70;100.00;102360.81;2073065;28;20188;-64
2022/12/02 01:58:45;;;;;;;11.07;9.87;;;;;;;5.74;100.00;102358.16;2073066;28;20706;-65
2022/12/02 01:59:46;;;;;;;12.03;10.57;;;;;;;5.76;100.00;102359.41;2072928;28;20196;-64
2022/12/02 02:00:47;;;;;;;12.03;10.83;;;;;;;5.70;100.00;102354.53;2072824;28;20228;-65
2022/12/02 02:01:47;;;;;;;12.30;9.93;;;;;;;5.81;100.00;102358.34;2073044;28;20189;-64
2022/12/02 02:02:48;;;;;;;11.33;10.10;;;;;;;5.82;100.00;102363.50;2072615;28;20647;-64
2022/12/02 02:03:48;;;;;;;12.03;10.83;;;;;;;5.79;100.00;102355.94;2072098;28;20190;-64
2022/12/02 02:04:49;;;;;;;12.10;10.87;;;;;;;5.84;100.00;102365.91;2072081;28;20681;-64
2022/12/02 02:05:50;;;;;;;11.50;10.30;;;;;;;5.87;100.00;102367.91;2072900;28;20174;-64
2022/12/02 02:06:51;;;;;;;12.05;10.77;;;;;;;5.71;100.00;102340.44;2072880;28;20225;-64
2022/12/02 02:07:53;;;;;;;11.97;10.77;;;;;;;5.02;100.00;102229.59;2071547;28;20220;-65
2022/12/02 02:08:54;;;;;;;12.25;10.95;;;;;;;5.92;100.00;102362.94;2071738;28;20268;-64
2022/12/02 02:09:55;;;;;;;11.73;10.53;;;;;;;5.94;100.00;102377.13;2072799;28;20188;-64
2022/12/02 02:10:55;;;;;;;11.83;10.53;;;;;;;5.91;100.00;102364.13;2073026;28;20200;-64
2022/12/02 02:11:56;;;;;;;12.53;11.23;;;;;;;5.97;100.00;102367.38;2072730;28;20656;-65
2022/12/02 02:12:57;;;;;;;12.20;10.93;;;;;;;5.77;100.00;102333.50;2071955;28;20691;-65
2022/12/02 02:13:57;;;;;;;12.07;10.85;;;;;;;5.96;100.00;102363.03;2072462;28;20185;-65
2022/12/02 02:14:58;;;;;;;12.47;11.00;;;;;;;5.93;100.00;102356.28;2072974;28;20178;-64
2022/12/02 02:15:59;;;;;;;11.77;10.63;;;;;;;5.57;100.00;102300.78;2072700;28;20221;-64
2022/12/02 02:16:59;;;;;;;12.50;11.03;;;;;;;5.92;100.00;102365.69;2072965;28;20592;-64
2022/12/02 02:18:00;;;;;;;12.33;11.03;;;;;;;5.88;100.00;102361.25;2071162;28;20198;-64
2022/12/02 02:19:01;;;;;;;12.10;10.80;;;;;;;5.84;100.00;102361.19;2069501;28;20197;-65
2022/12/02 02:20:04;;;;;;;13.00;11.27;;;;;;;5.85;100.00;102357.25;2072986;28;20265;-65
2022/12/02 02:21:08;;;;;;;12.20;11.00;;;;;;;5.82;100.00;102360.75;2072490;28;20636;-64
2022/12/02 02:22:15;;;;;;;12.60;11.30;;;;;;;5.86;100.00;102356.13;2073076;28;20674;-64
2022/12/02 02:23:18;;;;;;;11.85;10.65;;;;;;;5.94;100.00;102359.84;2071075;28;20182;-65
2022/12/02 02:24:18;;;;;;;12.52;11.23;;;;;;;5.42;100.00;102288.66;2072339;28;20193;-64
2022/12/02 02:25:19;;;;;;;12.23;10.93;;;;;;;4.73;100.00;102177.84;2072956;28;20230;-64
2022/12/02 02:26:19;;;;;;;12.00;10.70;;;;;;;5.88;100.00;102358.50;2072702;28;20199;-65
2022/12/02 02:27:20;;;;;;;13.10;11.67;;;;;;;5.55;100.00;102305.84;2073106;28;20213;-65
2022/12/02 02:28:23;;;;;;;13.10;11.10;;;;;;;5.53;100.00;102306.19;2072726;28;20200;-64
2022/12/02 02:29:23;;;;;;;12.63;11.32;;;;;;;5.45;100.00;102296.22;2072828;28;20690;-65
2022/12/02 02:30:27;;;;;;;11.93;10.63;;;;;;;5.86;100.00;102372.66;2072344;28;20177;-64
2022/12/02 02:31:27;;;;;;;11.45;10.25;;;;;;;5.79;100.00;102349.66;2072105;28;20596;-64
2022/12/02 02:32:28;;;;;;;11.67;10.47;;;;;;;5.96;100.00;102369.34;2071943;28;20221;-65
2022/12/02 02:33:32;;;;;;;11.80;10.60;;;;;;;5.96;100.00;102368.53;2072762;28;20188;-65
2022/12/02 02:34:33;;;;;;;12.63;11.32;;;;;;;5.94;100.00;102368.09;2069443;28;20190;-65
2022/12/02 02:35:35;;;;;;;11.37;10.27;;;;;;;5.94;100.00;102368.09;2072388;28;20217;-64
2022/12/02 02:36:36;;;;;;;12.25;10.90;;;;;;;5.90;100.00;102358.97;2072966;28;20198;-65
2022/12/02 02:37:37;;;;;;;11.73;10.53;;;;;;;5.84;100.00;102355.69;2069357;28;20191;-64
2022/12/02 02:38:38;;;;;;;11.85;10.43;;;;;;;5.86;100.00;102358.88;2072902;28;20241;-64
2022/12/02 02:39:39;;;;;;;12.00;10.80;;;;;;;5.53;100.00;102319.16;2072549;28;20202;-65
2022/12/02 02:40:41;;;;;;;12.17;10.97;;;;;;;5.83;100.00;102361.53;2072884;28;20344;-64
2022/12/02 02:41:41;;;;;;;11.93;10.30;;;;;;;5.54;100.00;102312.50;2072950;28;20241;-64
2022/12/02 02:42:44;;;;;;;10.87;9.70;;;;;;;5.38;100.00;102301.53;2072927;28;20185;-64
2022/12/02 02:43:45;;;;;;;12.30;11.00;;;;;;;5.71;100.00;102364.38;2072495;28;20651;-65
2022/12/02 02:44:46;;;;;;;11.57;10.02;;;;;;;5.68;100.00;102362.31;2072689;28;20193;-64
2022/12/02 02:45:47;;;;;;;12.17;10.57;;;;;;;5.66;100.00;102362.72;2073034;28;20264;-64
2022/12/02 02:46:48;;;;;;;11.45;10.25;;;;;;;5.10;100.00;102281.59;2074572;28;20248;-64
2022/12/02 02:47:49;;;;;;;12.03;10.70;;;;;;;5.73;100.00;102384.06;2074557;28;20640;-64
2022/12/02 02:48:50;;;;;;;11.05;9.93;;;;;;;5.48;100.00;102331.22;2074031;28;20268;-64
2022/12/02 02:49:50;;;;;;;12.27;10.97;;;;;;;5.28;100.00;102301.28;2074400;28;20186;-65
2022/12/02 02:50:52;;;;;;;11.63;10.43;;;;;;;5.44;100.00;102318.56;2074067;28;20273;-64
2022/12/02 02:51:52;;;;;;;10.75;9.65;;;;;;;5.79;100.00;102369.69;2074518;28;20185;-65
2022/12/02 02:52:54;;;;;;;11.73;10.50;;;;;;;5.79;100.00;102366.94;2074542;28;20186;-65
2022/12/02 02:53:54;;;;;;;11.20;10.05;;;;;;;5.80;100.00;102373.28;2074144;28;20193;-64
2022/12/02 02:54:55;;;;;;;10.40;9.30;;;;;;;5.72;100.00;102376.97;2074118;28;20228;-65
2022/12/02 02:55:55;;;;;;;11.70;10.50;;;;;;;5.61;100.00;102351.97;2074104;28;20597;-65
2022/12/02 02:56:56;;;;;;;11.20;10.00;;;;;;;5.22;100.00;102286.19;2074569;28;20190;-64
2022/12/02 02:58:26;;;;;;;10.73;9.63;;;;;;;5.82;100.00;102377.25;2074609;28;20181;-65
2022/12/02 02:59:26;;;;;;;11.43;10.05;;;;;;;5.57;100.00;102348.34;2074007;28;20205;-66
2022/12/02 03:00:26;;;;;;;11.43;10.23;;;;;;;5.78;100.00;102370.03;2070848;28;20178;-65
2022/12/02 03:01:32;;;;;;;11.80;10.60;;;;;;;5.80;100.00;102373.28;2074325;28;20674;-64
2022/12/02 03:02:33;;;;;;;11.20;10.10;;;;;;;5.71;100.00;102376.19;2074213;28;20205;-64
2022/12/02 03:03:39;;;;;;;10.60;9.50;;;;;;;5.69;100.00;102369.44;2074619;28;20242;-64
2022/12/02 03:04:42;;;;;;;11.48;10.35;;;;;;;5.72;100.00;102371.47;2074458;28;20237;-64
2022/12/02 03:05:44;;;;;;;10.38;9.30;;;;;;;5.22;100.00;102288.94;2074488;28;20187;-64
2022/12/02 03:06:46;;;;;;;11.88;10.23;;;;;;;5.83;100.00;102361.53;2073992;28;20189;-64
2022/12/02 03:07:47;;;;;;;10.05;8.95;;;;;;;5.72;100.00;102341.22;2073634;28;20179;-65
2022/12/02 03:08:49;;;;;;;10.32;9.23;;;;;;;5.88;100.00;102370.31;2072798;28;20232;-64
2022/12/02 03:09:50;;;;;;;10.32;9.25;;;;;;;5.84;100.00;102355.69;2073951;28;20197;-65
2022/12/02 03:10:56;;;;;;;10.83;9.73;;;;;;;5.92;100.00;102371.22;2074202;28;20340;-65
2022/12/02 03:11:57;;;;;;;9.57;8.60;;;;;;;5.94;100.00;102368.09;2074033;28;20417;-64
2022/12/02 03:12:58;;;;;;;10.98;9.70;;;;;;;5.53;100.00;102311.69;2074184;28;20209;-64
2022/12/02 03:14:00;;;;;;;10.50;9.40;;;;;;;5.93;100.00;102361.78;2074226;28;20190;-65
2022/12/02 03:15:02;;;;;;;10.45;9.07;;;;;;;5.97;100.00;102361.88;2073928;28;20194;-64
2022/12/02 03:16:06;;;;;;;10.52;9.27;;;;;;;5.95;100.00;102369.69;2074300;28;20205;-64
2022/12/02 03:17:06;;;;;;;10.00;9.00;;;;;;;5.25;100.00;102249.75;2074313;28;20226;-64
2022/12/02 03:18:07;;;;;;;10.33;9.23;;;;;;;6.01;100.00;102369.03;2074404;28;20209;-64
2022/12/02 03:19:08;;;;;;;9.97;8.97;;;;;;;5.66;100.00;102309.63;2073778;28;20194;-65
2022/12/02 03:20:09;;;;;;;10.67;9.57;;;;;;;5.94;100.00;102366.13;2074236;28;20194;-64
2022/12/02 03:21:11;;;;;;;10.98;9.77;;;;;;;5.80;100.00;102352.03;2074057;28;20220;-65
2022/12/02 03:22:12;;;;;;;10.40;9.30;;;;;;;5.98;100.00;102367.00;2074312;28;20702;-65
2022/12/02 03:23:13;;;;;;;10.15;9.15;;;;;;;6.04;100.00;102362.81;2074273;28;20566;-64
2022/12/02 03:24:14;;;;;;;10.80;9.70;;;;;;;5.69;100.00;102297.94;2074296;28;20189;-64
2022/12/02 03:25:14;;;;;;;10.83;9.73;;;;;;;5.13;100.00;102230.63;2074009;28;20193;-65
2022/12/02 03:26:15;;;;;;;10.50;9.40;;;;;;;5.15;100.00;102222.81;2074165;28;20189;-65
2022/12/02 03:27:16;;;;;;;10.50;9.50;;;;;;;5.89;100.00;102349.13;2073480;28;20687;-64
2022/12/02 03:28:17;;;;;;;10.20;9.20;;;;;;;5.91;100.00;102358.59;2073250;28;20194;-65
2022/12/02 03:29:19;;;;;;;9.85;8.85;;;;;;;5.90;100.00;102365.25;2073927;28;20182;-65
2022/12/02 03:30:19;;;;;;;10.70;9.60;;;;;;;5.91;100.00;102364.13;2074245;28;20186;-65
2022/12/02 03:31:21;;;;;;;10.63;9.33;;;;;;;5.83;100.00;102347.78;2074161;28;20249;-64
2022/12/02 03:32:21;;;;;;;11.10;9.90;;;;;;;5.94;100.00;102363.38;2074376;28;20304;-65
2022/12/02 03:33:23;;;;;;;11.53;10.20;;;;;;;5.03;100.00;102223.72;2073932;28;20221;-64
2022/12/02 03:34:23;;;;;;;10.88;9.77;;;;;;;5.44;100.00;102300.09;2074239;28;20194;-64
2022/12/02 03:35:25;;;;;;;10.80;9.70;;;;;;;5.55;100.00;102300.34;2073788;28;20190;-64
2022/12/02 03:36:26;;;;;;;10.70;9.70;;;;;;;5.97;100.00;102359.91;2073817;28;20190;-65
2022/12/02 03:37:27;;;;;;;10.60;9.50;;;;;;;5.81;100.00;102352.84;2074106;28;20266;-64
2022/12/02 03:38:30;;;;;;;11.30;10.10;;;;;;;6.03;100.00;102360.41;2075784;28;20189;-64
2022/12/02 03:39:31;;;;;;;11.52;9.98;;;;;;;6.01;100.00;102351.72;2077821;28;20200;-65
2022/12/02 03:40:31;;;;;;;10.50;9.40;;;;;;;6.03;100.00;102352.97;2074102;28;20267;-64
2022/12/02 03:41:32;;;;;;;10.57;9.47;;;;;;;5.60;100.00;102289.84;2073831;28;20255;-64
2022/12/02 03:42:33;;;;;;;10.90;9.80;;;;;;;5.94;100.00;102351.59;2074263;28;20185;-64
2022/12/02 03:43:34;;;;;;;11.73;10.57;;;;;;;5.90;100.00;102359.75;2073516;28;20214;-64
2022/12/02 03:44:35;;;;;;;11.13;9.93;;;;;;;5.65;100.00;102319.06;2073769;28;20187;-64
2022/12/02 03:45:36;;;;;;;10.95;9.85;;;;;;;5.84;100.00;102336.41;2074233;28;20230;-64
2022/12/02 03:46:36;;;;;;;11.33;10.10;;;;;;;5.45;100.00;102298.16;2073050;28;20239;-64
2022/12/02 03:47:38;;;;;;;11.63;10.43;;;;;;;5.92;100.00;102365.69;2073772;28;20196;-65
2022/12/02 03:48:39;;;;;;;13.43;11.15;;;;;;;5.90;100.00;102359.75;2073453;28;20680;-66
2022/12/02 03:49:39;;;;;;;12.30;10.90;;;;;;;5.84;100.00;102354.91;2073837;28;20191;-64
2022/12/02 03:50:40;;;;;;;11.93;10.63;;;;;;;5.84;100.00;102357.66;2073772;28;20199;-65
2022/12/02 03:51:41;;;;;;;10.97;9.87;;;;;;;5.73;100.00;102351.06;2072295;28;20217;-65
2022/12/02 03:52:41;;;;;;;11.57;10.37;;;;;;;5.76;100.00;102359.41;2073481;28;20184;-64
2022/12/02 03:53:42;;;;;;;12.00;10.70;;;;;;;5.79;100.00;102357.91;2073921;28;20193;-64
2022/12/02 03:54:43;;;;;;;11.30;10.10;;;;;;;5.78;100.00;102350.78;2073421;28;20226;-65
2022/12/02 03:55:43;;;;;;;12.43;10.50;;;;;;;5.20;100.00;102267.34;2073825;28;20220;-64
2022/12/02 03:56:44;;;;;;;12.23;10.93;;;;;;;5.68;100.00;102357.63;2073595;28;20199;-64
2022/12/02 03:57:44;;;;;;;11.40;10.00;;;;;;;5.73;100.00;102357.34;2073695;28;20192;-65
2022/12/02 03:58:52;;;;;;;12.03;10.77;;;;;;;5.68;100.00;102348.56;2073679;28;20193;-65
2022/12/02 03:59:52;;;;;;;11.50;10.30;;;;;;;5.67;100.00;102355.22;2073693;28;20269;-64
2022/12/02 04:00:53;;;;;;;12.20;10.53;;;;;;;5.74;100.00;102356.19;2073570;28;20193;-64
2022/12/02 04:01:54;;;;;;;12.57;10.73;;;;;;;5.71;100.00;102354.19;2075722;28;20232;-65
2022/12/02 04:02:54;;;;;;;11.77;10.57;;;;;;;5.62;100.00;102345.31;2073264;28;20612;-65
2022/12/02 04:03:55;;;;;;;11.33;9.90;;;;;;;5.63;100.00;102346.09;2073789;28;20209;-65
2022/12/02 04:04:55;;;;;;;11.43;10.23;;;;;;;5.62;100.00;102350.81;2074023;28;20182;-64
2022/12/02 04:05:56;;;;;;;10.83;9.73;;;;;;;5.62;100.00;102348.06;2074011;28;20191;-65
2022/12/02 04:06:56;;;;;;;11.30;10.10;;;;;;;5.61;100.00;102343.72;2073813;28;20276;-64
2022/12/02 04:07:57;;;;;;;9.83;8.80;;;;;;;5.62;100.00;102350.81;2073780;28;20182;-64
2022/12/02 04:08:57;;;;;;;11.27;10.07;;;;;;;5.71;100.00;102350.63;2073282;28;20181;-64
2022/12/02 04:09:58;;;;;;;10.40;9.33;;;;;;;5.34;100.00;102288.84;2073664;28;20671;-66
2022/12/02 04:10:58;;;;;;;10.30;9.30;;;;;;;5.78;100.00;102359.84;2073742;28;20213;-65
2022/12/02 04:11:59;;;;;;;9.67;8.67;;;;;;;5.72;100.00;102358.53;2073382;28;20704;-64
2022/12/02 04:12:59;;;;;;;10.70;9.60;;;;;;;5.54;100.00;102321.53;2073823;28;20261;-65
2022/12/02 04:13:59;;;;;;;10.13;9.00;;;;;;;5.72;100.00;102361.28;2073336;28;20190;-64
2022/12/02 04:15:00;;;;;;;10.87;9.10;;;;;;;5.75;100.00;102355.03;2073817;28;20664;-65
2022/12/02 04:16:00;;;;;;;9.57;8.57;;;;;;;5.52;100.00;102321.13;2072973;28;20205;-65
2022/12/02 04:17:01;;;;;;;9.57;8.50;;;;;;;5.71;100.00;102350.63;2073379;28;20189;-64
2022/12/02 04:18:01;;;;;;;10.67;8.23;;;;;;;5.12;100.00;102282.03;2073537;28;20196;-65
2022/12/02 04:19:02;;;;;;;9.60;8.60;;;;;;;5.59;100.00;102342.50;2073793;28;20186;-65
2022/12/02 04:20:04;;;;;;;9.37;8.23;;;;;;;5.61;100.00;102356.66;2073629;28;20194;-64
2022/12/02 04:21:05;;;;;;;9.15;8.15;;;;;;;5.58;100.00;102349.13;2073622;28;20385;-65
2022/12/02 04:22:05;;;;;;;9.37;8.37;;;;;;;5.42;100.00;102327.16;2073162;28;20709;-64
2022/12/02 04:23:06;;;;;;;10.20;8.43;;;;;;;5.62;100.00;102353.56;2072427;28;20199;-65
2022/12/02 04:24:07;;;;;;;8.77;7.87;;;;;;;5.63;100.00;102354.34;2071750;28;20188;-64
2022/12/02 04:25:07;;;;;;;8.47;7.67;;;;;;;5.65;100.00;102358.34;2080895;28;20276;-64
2022/12/02 04:26:08;;;;;;;9.00;8.00;;;;;;;5.66;100.00;102359.16;2081000;28;20186;-64
2022/12/02 04:27:08;;;;;;;8.57;7.67;;;;;;;5.70;100.00;102362.78;2073659;28;20188;-64
2022/12/02 04:28:09;;;;;;;7.97;7.17;;;;;;;5.55;100.00;102345.13;2073857;28;20656;-65
2022/12/02 04:29:09;;;;;;;8.67;7.10;;;;;;;4.69;100.00;102213.47;2073098;28;20195;-65
2022/12/02 04:30:10;;;;;;;7.37;6.63;;;;;;;5.70;100.00;102360.03;2073423;28;20182;-65
2022/12/02 04:31:10;;;;;;;8.70;7.60;;;;;;;5.66;100.00;102359.16;2073849;28;20185;-65
2022/12/02 04:32:11;;;;;;;8.23;7.33;;;;;;;5.66;100.00;102359.97;2073418;28;20765;-65
2022/12/02 04:33:11;;;;;;;8.20;7.07;;;;;;;5.73;100.00;102368.38;2073717;28;20189;-65
2022/12/02 04:34:12;;;;;;;8.70;7.30;;;;;;;5.71;100.00;102359.69;2073321;28;20190;-64
2022/12/02 04:35:12;;;;;;;8.50;7.13;;;;;;;5.73;100.00;102362.88;2073578;28;20193;-65
2022/12/02 04:36:13;;;;;;;8.07;7.07;;;;;;;5.71;100.00;102356.13;2073339;28;20205;-64
2022/12/02 04:37:13;;;;;;;7.80;6.97;;;;;;;5.79;100.00;102358.69;2073351;28;20185;-65
2022/12/02 04:38:14;;;;;;;8.47;7.60;;;;;;;5.64;100.00;102328.47;2073527;28;20190;-64
2022/12/02 04:39:14;;;;;;;8.37;7.23;;;;;;;5.81;100.00;102353.66;2073411;28;20188;-65
2022/12/02 04:40:15;;;;;;;8.17;6.70;;;;;;;5.82;100.00;102363.50;2073233;28;20193;-65
2022/12/02 04:41:15;;;;;;;8.77;7.77;;;;;;;5.86;100.00;102363.59;2073664;28;20567;-65
2022/12/02 04:42:15;;;;;;;7.90;7.10;;;;;;;5.86;100.00;102367.16;2073323;28;20202;-64
2022/12/02 04:43:16;;;;;;;9.00;7.40;;;;;;;5.82;100.00;102363.50;2073911;28;20233;-65
2022/12/02 04:44:16;;;;;;;8.03;7.23;;;;;;;5.86;100.00;102369.09;2073260;28;20257;-64